sensor_id;sensor_type;location;lat;lon;timestamp;P1;durP1;ratioP1;P2;durP2;ratioP2
68365;SDS011;55283;51.466;5.478;2022-12-18T00:01:44;44.25;;;25.65;;
68365;SDS011;55283;51.466;5.478;2022-12-18T00:04:43;43.53;;;25.27;;
68365;SDS011;55283;51.466;5.478;2022-12-18T00:07:02;41.00;;;24.80;;
68365;SDS011;55283;51.466;5.478;2022-12-18T00:09:27;41.72;;;24.60;;
68365;SDS011;55283;51.466;5.478;2022-12-18T00:11:53;44.60;;;25.53;;
68365;SDS011;55283;51.466;5.478;2022-12-18T00:14:18;38.57;;;23.90;;
68365;SDS011;55283;51.466;5.478;2022-12-18T00:16:44;39.87;;;24.07;;
68365;SDS011;55283;51.466;5.478;2022-12-18T00:19:14;35.83;;;22.83;;
68365;SDS011;55283;51.466;5.478;2022-12-18T00:21:40;40.30;;;24.30;;
68365;SDS011;55283;51.466;5.478;2022-12-18T00:24:09;38.95;;;23.00;;
68365;SDS011;55283;51.466;5.478;2022-12-18T00:26:36;39.40;;;22.73;;
68365;SDS011;55283;51.466;5.478;2022-12-18T00:29:05;37.90;;;22.90;;
68365;SDS011;55283;51.466;5.478;2022-12-18T00:31:37;38.03;;;23.65;;
68365;SDS011;55283;51.466;5.478;2022-12-18T00:34:03;41.10;;;23.27;;
68365;SDS011;55283;51.466;5.478;2022-12-18T00:36:37;40.17;;;23.75;;
68365;SDS011;55283;51.466;5.478;2022-12-18T00:39:04;37.27;;;22.30;;
68365;SDS011;55283;51.466;5.478;2022-12-18T00:41:30;34.15;;;21.33;;
68365;SDS011;55283;51.466;5.478;2022-12-18T00:44:15;40.35;;;22.13;;
68365;SDS011;55283;51.466;5.478;2022-12-18T00:46:47;39.35;;;22.38;;
68365;SDS011;55283;51.466;5.478;2022-12-18T00:49:13;36.70;;;21.77;;
68365;SDS011;55283;51.466;5.478;2022-12-18T00:51:39;35.13;;;21.10;;
68365;SDS011;55283;51.466;5.478;2022-12-18T00:54:07;36.08;;;20.45;;
68365;SDS011;55283;51.466;5.478;2022-12-18T00:56:34;30.33;;;20.47;;
68365;SDS011;55283;51.466;5.478;2022-12-18T00:59:01;35.28;;;20.73;;
68365;SDS011;55283;51.466;5.478;2022-12-18T01:01:30;30.02;;;19.77;;
68365;SDS011;55283;51.466;5.478;2022-12-18T01:03:57;30.87;;;19.70;;
68365;SDS011;55283;51.466;5.478;2022-12-18T01:06:22;31.23;;;19.27;;
68365;SDS011;55283;51.466;5.478;2022-12-18T01:08:51;33.30;;;19.40;;
68365;SDS011;55283;51.466;5.478;2022-12-18T01:11:17;30.77;;;19.55;;
68365;SDS011;55283;51.466;5.478;2022-12-18T01:13:44;31.27;;;18.50;;
68365;SDS011;55283;51.466;5.478;2022-12-18T01:16:13;31.63;;;18.27;;
68365;SDS011;55283;51.466;5.478;2022-12-18T01:18:39;32.03;;;18.77;;
68365;SDS011;55283;51.466;5.478;2022-12-18T01:21:08;30.30;;;17.83;;
68365;SDS011;55283;51.466;5.478;2022-12-18T01:23:35;30.73;;;18.83;;
68365;SDS011;55283;51.466;5.478;2022-12-18T01:26:04;28.60;;;18.15;;
68365;SDS011;55283;51.466;5.478;2022-12-18T01:28:35;32.43;;;18.13;;
68365;SDS011;55283;51.466;5.478;2022-12-18T01:31:10;28.02;;;17.60;;
68365;SDS011;55283;51.466;5.478;2022-12-18T01:33:48;31.10;;;17.98;;
68365;SDS011;55283;51.466;5.478;2022-12-18T01:36:21;28.57;;;16.83;;
68365;SDS011;55283;51.466;5.478;2022-12-18T01:39:01;28.58;;;17.88;;
68365;SDS011;55283;51.466;5.478;2022-12-18T01:41:32;25.23;;;16.48;;
68365;SDS011;55283;51.466;5.478;2022-12-18T01:49:48;27.35;;;16.50;;
68365;SDS011;55283;51.466;5.478;2022-12-18T01:52:14;25.10;;;15.73;;
68365;SDS011;55283;51.466;5.478;2022-12-18T01:54:40;27.88;;;16.63;;
68365;SDS011;55283;51.466;5.478;2022-12-18T01:57:05;27.23;;;15.80;;
68365;SDS011;55283;51.466;5.478;2022-12-18T01:59:31;23.97;;;15.83;;
68365;SDS011;55283;51.466;5.478;2022-12-18T02:02:01;26.60;;;16.65;;
68365;SDS011;55283;51.466;5.478;2022-12-18T02:04:30;26.75;;;15.93;;
68365;SDS011;55283;51.466;5.478;2022-12-18T02:07:07;26.08;;;15.52;;
68365;SDS011;55283;51.466;5.478;2022-12-18T02:09:41;24.03;;;15.07;;
68365;SDS011;55283;51.466;5.478;2022-12-18T02:14:40;24.03;;;15.23;;
68365;SDS011;55283;51.466;5.478;2022-12-18T02:20:23;24.23;;;14.83;;
68365;SDS011;55283;51.466;5.478;2022-12-18T02:28:44;23.40;;;13.83;;
68365;SDS011;55283;51.466;5.478;2022-12-18T02:31:16;24.35;;;13.75;;
68365;SDS011;55283;51.466;5.478;2022-12-18T02:33:47;22.95;;;13.85;;
68365;SDS011;55283;51.466;5.478;2022-12-18T02:36:17;23.08;;;14.02;;
68365;SDS011;55283;51.466;5.478;2022-12-18T02:38:45;21.50;;;13.30;;
68365;SDS011;55283;51.466;5.478;2022-12-18T02:41:11;22.10;;;13.20;;
68365;SDS011;55283;51.466;5.478;2022-12-18T02:43:46;22.15;;;13.70;;
68365;SDS011;55283;51.466;5.478;2022-12-18T02:46:28;21.57;;;13.17;;
68365;SDS011;55283;51.466;5.478;2022-12-18T02:49:02;20.17;;;13.05;;
68365;SDS011;55283;51.466;5.478;2022-12-18T02:51:52;22.88;;;13.13;;
68365;SDS011;55283;51.466;5.478;2022-12-18T02:54:25;20.33;;;12.83;;
68365;SDS011;55283;51.466;5.478;2022-12-18T02:57:31;18.92;;;12.23;;
68365;SDS011;55283;51.466;5.478;2022-12-18T03:00:03;21.63;;;12.48;;
68365;SDS011;55283;51.466;5.478;2022-12-18T03:02:42;18.73;;;12.32;;
68365;SDS011;55283;51.466;5.478;2022-12-18T03:07:42;20.17;;;12.30;;
68365;SDS011;55283;51.466;5.478;2022-12-18T03:10:18;21.58;;;12.38;;
68365;SDS011;55283;51.466;5.478;2022-12-18T03:12:46;19.30;;;12.17;;
68365;SDS011;55283;51.466;5.478;2022-12-18T03:15:17;19.25;;;11.57;;
68365;SDS011;55283;51.466;5.478;2022-12-18T03:18:05;18.33;;;11.38;;
68365;SDS011;55283;51.466;5.478;2022-12-18T03:20:38;18.03;;;11.90;;
68365;SDS011;55283;51.466;5.478;2022-12-18T03:23:09;17.80;;;11.60;;
68365;SDS011;55283;51.466;5.478;2022-12-18T03:25:39;19.63;;;11.52;;
68365;SDS011;55283;51.466;5.478;2022-12-18T03:28:05;17.98;;;11.50;;
68365;SDS011;55283;51.466;5.478;2022-12-18T03:30:33;16.83;;;10.77;;
68365;SDS011;55283;51.466;5.478;2022-12-18T03:33:06;18.35;;;10.88;;
68365;SDS011;55283;51.466;5.478;2022-12-18T03:35:37;17.73;;;11.00;;
68365;SDS011;55283;51.466;5.478;2022-12-18T03:38:07;17.67;;;10.57;;
68365;SDS011;55283;51.466;5.478;2022-12-18T03:40:43;17.77;;;10.55;;
68365;SDS011;55283;51.466;5.478;2022-12-18T03:45:58;15.23;;;10.33;;
68365;SDS011;55283;51.466;5.478;2022-12-18T03:48:35;16.48;;;10.43;;
68365;SDS011;55283;51.466;5.478;2022-12-18T03:51:07;15.13;;;9.82;;
68365;SDS011;55283;51.466;5.478;2022-12-18T03:53:45;15.38;;;10.27;;
68365;SDS011;55283;51.466;5.478;2022-12-18T03:56:19;16.10;;;10.50;;
68365;SDS011;55283;51.466;5.478;2022-12-18T03:58:48;16.75;;;9.90;;
68365;SDS011;55283;51.466;5.478;2022-12-18T04:01:17;16.00;;;10.13;;
68365;SDS011;55283;51.466;5.478;2022-12-18T04:03:49;15.60;;;10.10;;
68365;SDS011;55283;51.466;5.478;2022-12-18T04:06:18;15.55;;;10.10;;
68365;SDS011;55283;51.466;5.478;2022-12-18T04:08:46;14.98;;;9.43;;
68365;SDS011;55283;51.466;5.478;2022-12-18T04:11:12;16.73;;;10.03;;
68365;SDS011;55283;51.466;5.478;2022-12-18T04:13:41;15.45;;;9.60;;
68365;SDS011;55283;51.466;5.478;2022-12-18T04:16:07;14.32;;;9.52;;
68365;SDS011;55283;51.466;5.478;2022-12-18T04:18:34;15.25;;;9.52;;
68365;SDS011;55283;51.466;5.478;2022-12-18T04:21:02;14.30;;;9.80;;
68365;SDS011;55283;51.466;5.478;2022-12-18T04:23:34;15.73;;;9.23;;
68365;SDS011;55283;51.466;5.478;2022-12-18T04:26:01;15.00;;;9.27;;
68365;SDS011;55283;51.466;5.478;2022-12-18T04:28:27;14.57;;;9.47;;
68365;SDS011;55283;51.466;5.478;2022-12-18T04:30:55;13.60;;;8.93;;
68365;SDS011;55283;51.466;5.478;2022-12-18T04:33:20;14.90;;;9.13;;
68365;SDS011;55283;51.466;5.478;2022-12-18T04:35:46;13.80;;;9.13;;
68365;SDS011;55283;51.466;5.478;2022-12-18T04:38:13;14.65;;;9.20;;
68365;SDS011;55283;51.466;5.478;2022-12-18T04:40:41;15.43;;;9.07;;
68365;SDS011;55283;51.466;5.478;2022-12-18T04:43:07;12.73;;;8.80;;
68365;SDS011;55283;51.466;5.478;2022-12-18T04:45:32;15.05;;;8.93;;
68365;SDS011;55283;51.466;5.478;2022-12-18T04:47:58;14.37;;;8.57;;
68365;SDS011;55283;51.466;5.478;2022-12-18T04:50:24;12.87;;;8.33;;
68365;SDS011;55283;51.466;5.478;2022-12-18T04:52:52;14.80;;;8.85;;
68365;SDS011;55283;51.466;5.478;2022-12-18T04:55:18;13.25;;;8.50;;
68365;SDS011;55283;51.466;5.478;2022-12-18T04:57:46;11.63;;;7.82;;
68365;SDS011;55283;51.466;5.478;2022-12-18T05:00:14;13.13;;;8.70;;
68365;SDS011;55283;51.466;5.478;2022-12-18T05:02:40;13.00;;;8.45;;
68365;SDS011;55283;51.466;5.478;2022-12-18T05:05:06;11.77;;;7.87;;
68365;SDS011;55283;51.466;5.478;2022-12-18T05:07:31;12.73;;;8.27;;
68365;SDS011;55283;51.466;5.478;2022-12-18T05:09:57;14.67;;;8.90;;
68365;SDS011;55283;51.466;5.478;2022-12-18T05:12:22;13.30;;;8.53;;
68365;SDS011;55283;51.466;5.478;2022-12-18T05:14:57;11.68;;;7.30;;
68365;SDS011;55283;51.466;5.478;2022-12-18T05:17:23;12.13;;;8.13;;
68365;SDS011;55283;51.466;5.478;2022-12-18T05:19:48;12.27;;;7.90;;
68365;SDS011;55283;51.466;5.478;2022-12-18T05:22:14;12.07;;;7.67;;
68365;SDS011;55283;51.466;5.478;2022-12-18T05:24:39;11.07;;;7.72;;
68365;SDS011;55283;51.466;5.478;2022-12-18T05:27:04;12.13;;;7.40;;
68365;SDS011;55283;51.466;5.478;2022-12-18T05:29:30;12.60;;;7.63;;
68365;SDS011;55283;51.466;5.478;2022-12-18T05:31:55;12.17;;;7.10;;
68365;SDS011;55283;51.466;5.478;2022-12-18T05:34:24;10.77;;;7.40;;
68365;SDS011;55283;51.466;5.478;2022-12-18T05:36:49;11.32;;;7.43;;
68365;SDS011;55283;51.466;5.478;2022-12-18T05:39:14;11.07;;;7.23;;
68365;SDS011;55283;51.466;5.478;2022-12-18T05:41:40;11.10;;;7.00;;
68365;SDS011;55283;51.466;5.478;2022-12-18T05:44:05;12.57;;;7.38;;
68365;SDS011;55283;51.466;5.478;2022-12-18T05:46:30;11.83;;;7.70;;
68365;SDS011;55283;51.466;5.478;2022-12-18T05:48:59;11.30;;;7.10;;
68365;SDS011;55283;51.466;5.478;2022-12-18T05:51:26;10.40;;;6.80;;
68365;SDS011;55283;51.466;5.478;2022-12-18T05:53:54;10.57;;;7.07;;
68365;SDS011;55283;51.466;5.478;2022-12-18T05:56:20;11.23;;;7.13;;
68365;SDS011;55283;51.466;5.478;2022-12-18T05:58:47;10.90;;;7.07;;
68365;SDS011;55283;51.466;5.478;2022-12-18T06:01:24;9.77;;;6.67;;
68365;SDS011;55283;51.466;5.478;2022-12-18T06:03:51;9.85;;;6.72;;
68365;SDS011;55283;51.466;5.478;2022-12-18T06:06:18;8.73;;;6.40;;
68365;SDS011;55283;51.466;5.478;2022-12-18T06:08:48;10.35;;;6.65;;
68365;SDS011;55283;51.466;5.478;2022-12-18T06:11:16;10.40;;;6.50;;
68365;SDS011;55283;51.466;5.478;2022-12-18T06:13:44;8.83;;;6.50;;
68365;SDS011;55283;51.466;5.478;2022-12-18T06:16:19;9.63;;;6.55;;
68365;SDS011;55283;51.466;5.478;2022-12-18T06:18:45;9.10;;;6.20;;
68365;SDS011;55283;51.466;5.478;2022-12-18T06:21:11;9.23;;;6.27;;
68365;SDS011;55283;51.466;5.478;2022-12-18T06:23:39;9.73;;;6.53;;
68365;SDS011;55283;51.466;5.478;2022-12-18T06:26:13;10.23;;;6.50;;
68365;SDS011;55283;51.466;5.478;2022-12-18T06:28:39;9.23;;;6.57;;
68365;SDS011;55283;51.466;5.478;2022-12-18T06:31:05;11.03;;;6.70;;
68365;SDS011;55283;51.466;5.478;2022-12-18T06:33:31;9.80;;;6.05;;
68365;SDS011;55283;51.466;5.478;2022-12-18T06:36:01;8.73;;;6.05;;
68365;SDS011;55283;51.466;5.478;2022-12-18T06:38:28;10.38;;;6.65;;
68365;SDS011;55283;51.466;5.478;2022-12-18T06:40:56;9.37;;;5.90;;
68365;SDS011;55283;51.466;5.478;2022-12-18T06:43:21;8.97;;;6.13;;
68365;SDS011;55283;51.466;5.478;2022-12-18T06:45:57;9.18;;;6.70;;
68365;SDS011;55283;51.466;5.478;2022-12-18T06:48:24;10.85;;;7.38;;
68365;SDS011;55283;51.466;5.478;2022-12-18T06:50:49;10.37;;;7.43;;
68365;SDS011;55283;51.466;5.478;2022-12-18T06:53:14;12.33;;;8.20;;
68365;SDS011;55283;51.466;5.478;2022-12-18T06:55:42;12.77;;;9.15;;
68365;SDS011;55283;51.466;5.478;2022-12-18T06:58:07;13.67;;;8.93;;
68365;SDS011;55283;51.466;5.478;2022-12-18T07:00:33;13.03;;;8.50;;
68365;SDS011;55283;51.466;5.478;2022-12-18T07:02:58;12.33;;;9.23;;
68365;SDS011;55283;51.466;5.478;2022-12-18T07:05:26;21.35;;;8.73;;
68365;SDS011;55283;51.466;5.478;2022-12-18T07:07:51;11.67;;;8.60;;
68365;SDS011;55283;51.466;5.478;2022-12-18T07:10:19;10.43;;;8.38;;
68365;SDS011;55283;51.466;5.478;2022-12-18T07:12:45;12.20;;;8.40;;
68365;SDS011;55283;51.466;5.478;2022-12-18T07:15:11;14.10;;;8.43;;
68365;SDS011;55283;51.466;5.478;2022-12-18T07:17:37;11.27;;;8.30;;
68365;SDS011;55283;51.466;5.478;2022-12-18T07:20:05;11.65;;;8.18;;
68365;SDS011;55283;51.466;5.478;2022-12-18T07:22:31;12.52;;;8.43;;
68365;SDS011;55283;51.466;5.478;2022-12-18T07:24:56;10.07;;;7.93;;
68365;SDS011;55283;51.466;5.478;2022-12-18T07:27:22;10.87;;;7.77;;
68365;SDS011;55283;51.466;5.478;2022-12-18T07:29:47;9.32;;;7.43;;
68365;SDS011;55283;51.466;5.478;2022-12-18T07:32:13;11.03;;;7.50;;
68365;SDS011;55283;51.466;5.478;2022-12-18T07:34:38;14.07;;;8.00;;
68365;SDS011;55283;51.466;5.478;2022-12-18T07:37:04;16.17;;;8.07;;
68365;SDS011;55283;51.466;5.478;2022-12-18T07:39:32;15.10;;;8.27;;
68365;SDS011;55283;51.466;5.478;2022-12-18T07:41:57;13.40;;;7.17;;
68365;SDS011;55283;51.466;5.478;2022-12-18T07:44:41;15.25;;;7.30;;
68365;SDS011;55283;51.466;5.478;2022-12-18T07:47:09;11.80;;;6.57;;
68365;SDS011;55283;51.466;5.478;2022-12-18T07:49:35;15.65;;;6.90;;
68365;SDS011;55283;51.466;5.478;2022-12-18T07:52:00;14.23;;;6.90;;
68365;SDS011;55283;51.466;5.478;2022-12-18T07:54:26;11.18;;;6.63;;
68365;SDS011;55283;51.466;5.478;2022-12-18T07:56:52;13.63;;;6.90;;
68365;SDS011;55283;51.466;5.478;2022-12-18T07:59:23;13.82;;;7.20;;
68365;SDS011;55283;51.466;5.478;2022-12-18T08:01:51;15.17;;;6.90;;
68365;SDS011;55283;51.466;5.478;2022-12-18T08:04:19;10.80;;;6.30;;
68365;SDS011;55283;51.466;5.478;2022-12-18T08:06:44;12.80;;;6.57;;
68365;SDS011;55283;51.466;5.478;2022-12-18T08:09:10;13.05;;;6.22;;
68365;SDS011;55283;51.466;5.478;2022-12-18T08:11:35;11.23;;;5.77;;
68365;SDS011;55283;51.466;5.478;2022-12-18T08:14:01;10.13;;;5.60;;
68365;SDS011;55283;51.466;5.478;2022-12-18T08:16:26;10.27;;;5.37;;
68365;SDS011;55283;51.466;5.478;2022-12-18T08:18:52;14.40;;;5.68;;
68365;SDS011;55283;51.466;5.478;2022-12-18T08:21:28;12.23;;;5.30;;
68365;SDS011;55283;51.466;5.478;2022-12-18T08:23:56;9.93;;;5.72;;
68365;SDS011;55283;51.466;5.478;2022-12-18T08:26:23;10.88;;;7.30;;
68365;SDS011;55283;51.466;5.478;2022-12-18T08:28:53;11.03;;;7.33;;
68365;SDS011;55283;51.466;5.478;2022-12-18T08:31:23;10.70;;;6.18;;
68365;SDS011;55283;51.466;5.478;2022-12-18T08:33:49;11.45;;;6.00;;
68365;SDS011;55283;51.466;5.478;2022-12-18T08:36:17;9.55;;;5.22;;
68365;SDS011;55283;51.466;5.478;2022-12-18T08:38:42;10.20;;;5.80;;
68365;SDS011;55283;51.466;5.478;2022-12-18T08:41:09;11.10;;;5.70;;
68365;SDS011;55283;51.466;5.478;2022-12-18T08:43:36;8.93;;;5.10;;
68365;SDS011;55283;51.466;5.478;2022-12-18T08:46:21;8.53;;;5.10;;
68365;SDS011;55283;51.466;5.478;2022-12-18T08:48:50;8.77;;;5.43;;
68365;SDS011;55283;51.466;5.478;2022-12-18T08:51:22;9.88;;;4.88;;
68365;SDS011;55283;51.466;5.478;2022-12-18T08:53:50;9.85;;;4.80;;
68365;SDS011;55283;51.466;5.478;2022-12-18T08:56:16;9.27;;;5.30;;
68365;SDS011;55283;51.466;5.478;2022-12-18T08:58:42;8.47;;;5.07;;
68365;SDS011;55283;51.466;5.478;2022-12-18T09:01:10;8.35;;;4.75;;
68365;SDS011;55283;51.466;5.478;2022-12-18T09:03:37;7.55;;;4.80;;
68365;SDS011;55283;51.466;5.478;2022-12-18T09:06:03;6.53;;;4.60;;
68365;SDS011;55283;51.466;5.478;2022-12-18T09:08:29;9.50;;;4.93;;
68365;SDS011;55283;51.466;5.478;2022-12-18T09:10:55;8.15;;;4.70;;
68365;SDS011;55283;51.466;5.478;2022-12-18T09:13:23;7.07;;;4.70;;
68365;SDS011;55283;51.466;5.478;2022-12-18T09:15:52;7.18;;;4.75;;
68365;SDS011;55283;51.466;5.478;2022-12-18T09:18:19;8.07;;;4.90;;
68365;SDS011;55283;51.466;5.478;2022-12-18T09:20:46;11.43;;;4.65;;
68365;SDS011;55283;51.466;5.478;2022-12-18T09:23:17;7.63;;;4.30;;
68365;SDS011;55283;51.466;5.478;2022-12-18T09:25:43;7.07;;;4.78;;
68365;SDS011;55283;51.466;5.478;2022-12-18T09:28:17;7.27;;;4.70;;
68365;SDS011;55283;51.466;5.478;2022-12-18T09:30:49;7.25;;;4.20;;
68365;SDS011;55283;51.466;5.478;2022-12-18T09:33:15;7.78;;;4.55;;
68365;SDS011;55283;51.466;5.478;2022-12-18T09:35:41;8.73;;;4.67;;
68365;SDS011;55283;51.466;5.478;2022-12-18T09:38:12;7.18;;;4.32;;
68365;SDS011;55283;51.466;5.478;2022-12-18T09:40:47;7.55;;;4.63;;
68365;SDS011;55283;51.466;5.478;2022-12-18T09:43:28;7.40;;;4.17;;
68365;SDS011;55283;51.466;5.478;2022-12-18T09:46:07;9.02;;;4.75;;
68365;SDS011;55283;51.466;5.478;2022-12-18T09:48:44;7.15;;;4.47;;
68365;SDS011;55283;51.466;5.478;2022-12-18T09:54:07;6.38;;;4.07;;
68365;SDS011;55283;51.466;5.478;2022-12-18T09:56:43;7.00;;;4.32;;
68365;SDS011;55283;51.466;5.478;2022-12-18T10:02:18;7.80;;;4.30;;
68365;SDS011;55283;51.466;5.478;2022-12-18T10:05:04;7.50;;;4.25;;
68365;SDS011;55283;51.466;5.478;2022-12-18T10:08:05;7.93;;;4.40;;
68365;SDS011;55283;51.466;5.478;2022-12-18T10:10:31;8.52;;;4.22;;
68365;SDS011;55283;51.466;5.478;2022-12-18T10:13:07;6.93;;;4.10;;
68365;SDS011;55283;51.466;5.478;2022-12-18T10:16:13;5.43;;;3.77;;
68365;SDS011;55283;51.466;5.478;2022-12-18T10:27:29;6.47;;;4.20;;
68365;SDS011;55283;51.466;5.478;2022-12-18T10:29:55;6.53;;;4.30;;
68365;SDS011;55283;51.466;5.478;2022-12-18T10:32:23;5.80;;;3.72;;
68365;SDS011;55283;51.466;5.478;2022-12-18T10:34:51;6.87;;;4.47;;
68365;SDS011;55283;51.466;5.478;2022-12-18T10:37:19;5.72;;;3.83;;
68365;SDS011;55283;51.466;5.478;2022-12-18T10:40:23;5.68;;;3.70;;
68365;SDS011;55283;51.466;5.478;2022-12-18T10:42:41;8.07;;;4.20;;
68365;SDS011;55283;51.466;5.478;2022-12-18T10:47:49;7.78;;;4.30;;
68365;SDS011;55283;51.466;5.478;2022-12-18T10:50:31;5.70;;;4.38;;
68365;SDS011;55283;51.466;5.478;2022-12-18T10:53:00;5.63;;;4.20;;
68365;SDS011;55283;51.466;5.478;2022-12-18T10:55:32;6.25;;;4.55;;
68365;SDS011;55283;51.466;5.478;2022-12-18T10:58:18;6.15;;;4.38;;
68365;SDS011;55283;51.466;5.478;2022-12-18T11:01:16;6.13;;;4.20;;
68365;SDS011;55283;51.466;5.478;2022-12-18T11:06:23;7.45;;;4.38;;
68365;SDS011;55283;51.466;5.478;2022-12-18T11:11:25;6.05;;;4.13;;
68365;SDS011;55283;51.466;5.478;2022-12-18T11:16:25;8.65;;;4.10;;
68365;SDS011;55283;51.466;5.478;2022-12-18T11:18:52;6.43;;;4.30;;
68365;SDS011;55283;51.466;5.478;2022-12-18T11:21:32;6.32;;;4.00;;
68365;SDS011;55283;51.466;5.478;2022-12-18T11:24:05;7.30;;;4.03;;
68365;SDS011;55283;51.466;5.478;2022-12-18T11:26:59;7.67;;;4.10;;
68365;SDS011;55283;51.466;5.478;2022-12-18T11:29:38;5.88;;;4.00;;
68365;SDS011;55283;51.466;5.478;2022-12-18T11:38:04;5.72;;;3.70;;
68365;SDS011;55283;51.466;5.478;2022-12-18T11:40:40;6.13;;;3.75;;
68365;SDS011;55283;51.466;5.478;2022-12-18T11:43:21;5.78;;;3.80;;
68365;SDS011;55283;51.466;5.478;2022-12-18T11:45:58;5.20;;;4.00;;
68365;SDS011;55283;51.466;5.478;2022-12-18T11:48:36;5.32;;;3.90;;
68365;SDS011;55283;51.466;5.478;2022-12-18T11:51:09;5.55;;;3.88;;
68365;SDS011;55283;51.466;5.478;2022-12-18T11:53:52;5.33;;;3.80;;
68365;SDS011;55283;51.466;5.478;2022-12-18T11:56:29;8.77;;;4.43;;
68365;SDS011;55283;51.466;5.478;2022-12-18T11:59:07;4.88;;;3.60;;
68365;SDS011;55283;51.466;5.478;2022-12-18T12:01:58;5.50;;;3.90;;
68365;SDS011;55283;51.466;5.478;2022-12-18T12:16:24;5.30;;;3.92;;
68365;SDS011;55283;51.466;5.478;2022-12-18T12:19:12;5.18;;;3.78;;
68365;SDS011;55283;51.466;5.478;2022-12-18T12:21:41;7.27;;;3.70;;
68365;SDS011;55283;51.466;5.478;2022-12-18T12:24:31;5.72;;;3.95;;
68365;SDS011;55283;51.466;5.478;2022-12-18T12:30:07;4.90;;;3.67;;
68365;SDS011;55283;51.466;5.478;2022-12-18T12:38:24;6.93;;;3.67;;
68365;SDS011;55283;51.466;5.478;2022-12-18T12:40:57;7.23;;;3.93;;
68365;SDS011;55283;51.466;5.478;2022-12-18T12:46:07;5.70;;;3.38;;
68365;SDS011;55283;51.466;5.478;2022-12-18T12:48:46;6.23;;;3.60;;
68365;SDS011;55283;51.466;5.478;2022-12-18T12:53:48;5.78;;;4.20;;
68365;SDS011;55283;51.466;5.478;2022-12-18T12:56:14;7.20;;;3.80;;
68365;SDS011;55283;51.466;5.478;2022-12-18T13:04:10;5.53;;;3.40;;
68365;SDS011;55283;51.466;5.478;2022-12-18T13:06:57;6.37;;;3.77;;
68365;SDS011;55283;51.466;5.478;2022-12-18T13:09:31;4.63;;;3.47;;
68365;SDS011;55283;51.466;5.478;2022-12-18T13:12:01;5.68;;;3.67;;
68365;SDS011;55283;51.466;5.478;2022-12-18T13:14:52;4.20;;;3.20;;
68365;SDS011;55283;51.466;5.478;2022-12-18T13:19:49;5.27;;;3.30;;
68365;SDS011;55283;51.466;5.478;2022-12-18T13:22:23;5.55;;;3.60;;
68365;SDS011;55283;51.466;5.478;2022-12-18T13:24:58;4.75;;;3.50;;
68365;SDS011;55283;51.466;5.478;2022-12-18T13:30:27;6.50;;;3.42;;
68365;SDS011;55283;51.466;5.478;2022-12-18T13:41:03;5.28;;;3.60;;
68365;SDS011;55283;51.466;5.478;2022-12-18T13:43:55;4.72;;;3.58;;
68365;SDS011;55283;51.466;5.478;2022-12-18T13:46:47;4.73;;;3.63;;
68365;SDS011;55283;51.466;5.478;2022-12-18T13:52:20;5.63;;;3.28;;
68365;SDS011;55283;51.466;5.478;2022-12-18T13:54:50;4.60;;;3.33;;
68365;SDS011;55283;51.466;5.478;2022-12-18T13:57:31;5.00;;;3.72;;
68365;SDS011;55283;51.466;5.478;2022-12-18T14:02:54;4.85;;;3.47;;
68365;SDS011;55283;51.466;5.478;2022-12-18T14:07:50;5.57;;;3.42;;
68365;SDS011;55283;51.466;5.478;2022-12-18T14:10:19;4.05;;;3.30;;
68365;SDS011;55283;51.466;5.478;2022-12-18T14:12:47;5.07;;;3.40;;
68365;SDS011;55283;51.466;5.478;2022-12-18T14:20:29;4.20;;;3.30;;
68365;SDS011;55283;51.466;5.478;2022-12-18T14:22:59;4.40;;;3.20;;
68365;SDS011;55283;51.466;5.478;2022-12-18T14:25:31;4.50;;;3.10;;
68365;SDS011;55283;51.466;5.478;2022-12-18T14:30:44;3.77;;;3.00;;
68365;SDS011;55283;51.466;5.478;2022-12-18T14:35:39;4.05;;;3.10;;
68365;SDS011;55283;51.466;5.478;2022-12-18T14:38:23;3.87;;;3.40;;
68365;SDS011;55283;51.466;5.478;2022-12-18T14:40:56;5.22;;;3.55;;
68365;SDS011;55283;51.466;5.478;2022-12-18T14:43:23;4.47;;;3.10;;
68365;SDS011;55283;51.466;5.478;2022-12-18T14:45:51;5.33;;;3.70;;
68365;SDS011;55283;51.466;5.478;2022-12-18T14:49:00;4.88;;;3.60;;
68365;SDS011;55283;51.466;5.478;2022-12-18T14:53:41;4.33;;;3.30;;
68365;SDS011;55283;51.466;5.478;2022-12-18T14:56:16;4.78;;;3.33;;
68365;SDS011;55283;51.466;5.478;2022-12-18T14:58:48;4.20;;;3.30;;
68365;SDS011;55283;51.466;5.478;2022-12-18T15:01:20;4.05;;;3.15;;
68365;SDS011;55283;51.466;5.478;2022-12-18T15:03:49;4.35;;;3.08;;
68365;SDS011;55283;51.466;5.478;2022-12-18T15:06:17;4.03;;;2.90;;
68365;SDS011;55283;51.466;5.478;2022-12-18T15:08:49;4.40;;;3.20;;
68365;SDS011;55283;51.466;5.478;2022-12-18T15:16:57;3.90;;;3.05;;
68365;SDS011;55283;51.466;5.478;2022-12-18T15:19:32;4.07;;;2.90;;
68365;SDS011;55283;51.466;5.478;2022-12-18T15:22:14;4.65;;;3.45;;
68365;SDS011;55283;51.466;5.478;2022-12-18T15:24:53;3.80;;;3.00;;
68365;SDS011;55283;51.466;5.478;2022-12-18T15:27:41;4.40;;;3.27;;
68365;SDS011;55283;51.466;5.478;2022-12-18T15:30:16;4.18;;;3.00;;
68365;SDS011;55283;51.466;5.478;2022-12-18T15:32:44;4.20;;;3.33;;
68365;SDS011;55283;51.466;5.478;2022-12-18T15:37:52;4.73;;;3.30;;
68365;SDS011;55283;51.466;5.478;2022-12-18T15:40:19;5.15;;;3.33;;
68365;SDS011;55283;51.466;5.478;2022-12-18T15:42:46;4.55;;;3.58;;
68365;SDS011;55283;51.466;5.478;2022-12-18T15:45:36;4.33;;;3.20;;
68365;SDS011;55283;51.466;5.478;2022-12-18T15:48:37;4.20;;;3.30;;
68365;SDS011;55283;51.466;5.478;2022-12-18T15:50:56;6.10;;;3.20;;
68365;SDS011;55283;51.466;5.478;2022-12-18T15:53:27;4.35;;;2.92;;
68365;SDS011;55283;51.466;5.478;2022-12-18T15:55:55;3.35;;;3.05;;
68365;SDS011;55283;51.466;5.478;2022-12-18T15:58:56;3.63;;;3.23;;
68365;SDS011;55283;51.466;5.478;2022-12-18T16:01:22;5.05;;;3.20;;
68365;SDS011;55283;51.466;5.478;2022-12-18T16:03:51;4.30;;;3.20;;
68365;SDS011;55283;51.466;5.478;2022-12-18T16:06:16;4.47;;;3.27;;
68365;SDS011;55283;51.466;5.478;2022-12-18T16:08:42;3.93;;;3.13;;
68365;SDS011;55283;51.466;5.478;2022-12-18T16:11:41;5.07;;;3.30;;
68365;SDS011;55283;51.466;5.478;2022-12-18T16:16:47;5.32;;;3.00;;
68365;SDS011;55283;51.466;5.478;2022-12-18T16:19:15;3.63;;;3.00;;
68365;SDS011;55283;51.466;5.478;2022-12-18T16:21:44;3.80;;;3.28;;
68365;SDS011;55283;51.466;5.478;2022-12-18T16:24:22;3.90;;;3.13;;
68365;SDS011;55283;51.466;5.478;2022-12-18T16:26:49;4.15;;;3.35;;
68365;SDS011;55283;51.466;5.478;2022-12-18T16:29:16;3.78;;;3.03;;
68365;SDS011;55283;51.466;5.478;2022-12-18T16:31:42;4.03;;;3.20;;
68365;SDS011;55283;51.466;5.478;2022-12-18T16:34:24;4.40;;;3.10;;
68365;SDS011;55283;51.466;5.478;2022-12-18T16:36:53;6.00;;;3.40;;
68365;SDS011;55283;51.466;5.478;2022-12-18T16:39:20;4.07;;;3.27;;
68365;SDS011;55283;51.466;5.478;2022-12-18T16:41:49;3.95;;;3.10;;
68365;SDS011;55283;51.466;5.478;2022-12-18T16:44:14;4.50;;;3.00;;
68365;SDS011;55283;51.466;5.478;2022-12-18T16:46:40;4.10;;;3.10;;
68365;SDS011;55283;51.466;5.478;2022-12-18T16:49:12;5.60;;;3.00;;
68365;SDS011;55283;51.466;5.478;2022-12-18T16:51:39;4.38;;;3.10;;
68365;SDS011;55283;51.466;5.478;2022-12-18T16:54:04;5.27;;;3.20;;
68365;SDS011;55283;51.466;5.478;2022-12-18T16:56:33;8.10;;;3.20;;
68365;SDS011;55283;51.466;5.478;2022-12-18T16:58:59;4.95;;;3.20;;
68365;SDS011;55283;51.466;5.478;2022-12-18T17:01:28;5.27;;;3.23;;
68365;SDS011;55283;51.466;5.478;2022-12-18T17:04:00;4.68;;;3.22;;
68365;SDS011;55283;51.466;5.478;2022-12-18T17:06:34;5.38;;;3.17;;
68365;SDS011;55283;51.466;5.478;2022-12-18T17:09:04;4.43;;;3.05;;
68365;SDS011;55283;51.466;5.478;2022-12-18T17:11:32;5.30;;;3.00;;